createdAt,value
2023-02-19T00:01:24.539Z,100497.72
2023-02-19T00:03:54.151Z,100501.94
2023-02-19T00:06:23.047Z,100502.19
2023-02-19T00:08:50.065Z,100491.56
2023-02-19T00:11:22.093Z,100508.34
2023-02-19T00:13:50.919Z,100502.28
2023-02-19T00:16:26.098Z,100504.97
2023-02-19T00:18:54.388Z,100514.81
2023-02-19T00:21:21.643Z,100527.81
2023-02-19T00:23:50.844Z,100503.41
2023-02-19T00:26:18.985Z,100503.03
2023-02-19T00:28:49.835Z,100496.81
2023-02-19T00:31:21.155Z,100501.28
2023-02-19T00:33:49.471Z,100510.19
2023-02-19T00:36:16.645Z,100500.19
2023-02-19T00:38:44.975Z,100504.94
2023-02-19T00:41:22.226Z,100495.56
2023-02-19T00:44:16.991Z,100501.16
2023-02-19T00:46:47.381Z,100501.03
2023-02-19T00:49:22.410Z,100498.75
2023-02-19T00:51:50.836Z,100512.94
2023-02-19T00:54:18.686Z,100516.56
2023-02-19T00:56:46.134Z,100525.88
2023-02-19T00:59:12.976Z,100525.78
2023-02-19T01:01:40.075Z,100531.44
2023-02-19T01:04:07.428Z,100532.56
2023-02-19T01:06:34.852Z,100537.88
2023-02-19T01:09:02.903Z,100536.47
2023-02-19T01:11:29.996Z,100538.00
2023-02-19T01:13:58.293Z,100533.59
2023-02-19T01:16:25.365Z,100530.78
2023-02-19T01:18:52.580Z,100538.19
2023-02-19T01:21:24.487Z,100532.97
2023-02-19T01:23:52.133Z,100543.09
2023-02-19T01:26:22.158Z,100535.75
2023-02-19T01:28:49.617Z,100523.22
2023-02-19T01:31:19.515Z,100526.19
2023-02-19T01:34:05.078Z,100528.84
2023-02-19T01:36:33.783Z,100527.19
2023-02-19T01:39:04.091Z,100536.13
2023-02-19T01:41:31.986Z,100539.78
2023-02-19T01:44:27.897Z,100535.50
2023-02-19T01:46:57.741Z,100535.31
2023-02-19T01:49:28.427Z,100534.31
2023-02-19T01:51:59.204Z,100545.94
2023-02-19T01:54:29.281Z,100540.47
2023-02-19T01:56:56.251Z,100541.13
2023-02-19T01:59:23.282Z,100546.50
2023-02-19T02:01:50.250Z,100550.94
2023-02-19T02:04:17.553Z,100547.69
2023-02-19T02:06:55.696Z,100542.94
2023-02-19T02:09:45.624Z,100536.47
2023-02-19T02:12:12.998Z,100540.13
2023-02-19T02:14:42.992Z,100538.41
2023-02-19T02:17:21.613Z,100539.13
2023-02-19T02:20:23.534Z,100538.56
2023-02-19T02:23:24.169Z,100538.25
2023-02-19T02:26:17.300Z,100545.19
2023-02-19T02:28:53.995Z,100545.50
2023-02-19T02:31:32.560Z,100545.75
2023-02-19T02:34:15.518Z,100550.88
2023-02-19T02:36:45.367Z,100557.44
2023-02-19T02:39:17.815Z,100572.63
2023-02-19T02:41:49.061Z,100573.34
2023-02-19T02:44:16.233Z,100584.56
2023-02-19T02:46:45.006Z,100590.06
2023-02-19T02:49:20.389Z,100585.69
2023-02-19T02:51:51.206Z,100579.50
2023-02-19T02:54:49.809Z,100579.19
2023-02-19T02:57:18.971Z,100565.53
2023-02-19T02:59:49.620Z,100566.28
2023-02-19T03:02:24.461Z,100565.72
2023-02-19T03:05:14.694Z,100572.88
2023-02-19T03:07:44.043Z,100580.09
2023-02-19T03:10:14.743Z,100575.94
2023-02-19T03:13:01.663Z,100584.28
2023-02-19T03:15:52.406Z,100568.84
2023-02-19T03:18:38.511Z,100576.03
2023-02-19T03:21:07.596Z,100568.91
2023-02-19T03:23:56.955Z,100575.78
2023-02-19T03:26:25.739Z,100562.06
2023-02-19T03:29:12.137Z,100575.63
2023-02-19T03:31:43.709Z,100585.53
2023-02-19T03:34:14.716Z,100583.84
2023-02-19T03:36:48.389Z,100595.56
2023-02-19T03:39:18.036Z,100595.19
2023-02-19T03:42:20.605Z,100593.31
2023-02-19T03:45:08.158Z,100599.03
2023-02-19T03:47:49.985Z,100599.44
2023-02-19T03:50:24.681Z,100612.50
2023-02-19T03:53:18.695Z,100602.97
2023-02-19T03:56:18.779Z,100596.25
2023-02-19T03:59:02.955Z,100601.56
2023-02-19T04:01:42.840Z,100590.91
2023-02-19T04:04:22.768Z,100591.09
2023-02-19T04:06:54.115Z,100581.88
2023-02-19T04:09:22.498Z,100583.97
2023-02-19T04:11:57.033Z,100573.81
2023-02-19T04:14:31.063Z,100546.06
2023-02-19T04:17:07.403Z,100532.09
2023-02-19T04:19:37.835Z,100527.59
2023-02-19T04:22:05.275Z,100530.38
2023-02-19T04:24:37.212Z,100544.81
2023-02-19T04:27:05.222Z,100543.97
2023-02-19T04:29:32.071Z,100550.97
2023-02-19T04:31:58.953Z,100546.53
2023-02-19T04:34:25.766Z,100549.19
2023-02-19T04:36:52.618Z,100549.56
2023-02-19T04:39:19.495Z,100545.72
2023-02-19T04:41:46.356Z,100535.97
2023-02-19T04:44:13.112Z,100530.31
2023-02-19T04:46:43.035Z,100525.19
2023-02-19T04:49:10.128Z,100532.13
2023-02-19T04:51:36.940Z,100544.69
2023-02-19T04:54:06.234Z,100544.44
2023-02-19T04:56:33.220Z,100544.50
2023-02-19T04:59:00.144Z,100545.91
2023-02-19T05:01:27.087Z,100541.44
2023-02-19T05:03:53.887Z,100530.53
2023-02-19T05:06:20.820Z,100528.88
2023-02-19T05:08:47.771Z,100522.75
2023-02-19T05:11:14.615Z,100525.06
2023-02-19T05:13:41.566Z,100512.38
2023-02-19T05:16:16.270Z,100503.34
2023-02-19T05:18:45.158Z,100511.38
2023-02-19T05:21:12.849Z,100507.28
2023-02-19T05:23:40.183Z,100512.53
2023-02-19T05:26:09.196Z,100510.84
2023-02-19T05:28:36.103Z,100501.94
2023-02-19T05:31:08.733Z,100508.03
2023-02-19T05:33:35.901Z,100523.19
2023-02-19T05:36:07.056Z,100519.28
2023-02-19T05:38:34.208Z,100514.69
2023-02-19T05:41:18.778Z,100518.69
2023-02-19T05:43:46.948Z,100521.22
2023-02-19T05:46:15.667Z,100523.69
2023-02-19T05:48:42.755Z,100526.03
2023-02-19T05:51:12.093Z,100522.88
2023-02-19T05:53:39.712Z,100525.00
2023-02-19T05:56:21.466Z,100514.59
2023-02-19T05:58:48.392Z,100513.78
2023-02-19T06:01:17.806Z,100521.22
2023-02-19T06:03:44.770Z,100517.59
2023-02-19T06:06:15.771Z,100510.97
2023-02-19T06:08:42.715Z,100518.28
2023-02-19T06:11:10.157Z,100507.00
2023-02-19T06:13:37.210Z,100513.47
2023-02-19T06:16:05.062Z,100512.63
2023-02-19T06:18:32.182Z,100505.31
2023-02-19T06:21:03.200Z,100505.50
2023-02-19T06:23:30.444Z,100489.94
2023-02-19T06:26:21.625Z,100489.44
2023-02-19T06:28:50.034Z,100483.31
2023-02-19T06:31:18.121Z,100485.78
2023-02-19T06:33:45.187Z,100485.09
2023-02-19T06:36:17.242Z,100473.34
2023-02-19T06:38:44.667Z,100461.41
2023-02-19T06:41:12.707Z,100453.78
2023-02-19T06:43:39.857Z,100463.75
2023-02-19T06:46:07.699Z,100463.88
2023-02-19T06:48:35.260Z,100453.06
2023-02-19T06:51:02.654Z,100443.81
2023-02-19T06:53:29.657Z,100446.28
2023-02-19T06:56:01.571Z,100439.38
2023-02-19T06:58:28.458Z,100444.69
2023-02-19T07:00:55.288Z,100446.66
2023-02-19T07:03:22.973Z,100441.72
2023-02-19T07:05:50.008Z,100438.75
2023-02-19T07:08:17.539Z,100439.75
2023-02-19T07:10:45.234Z,100437.25
2023-02-19T07:13:12.252Z,100441.41
2023-02-19T07:15:39.113Z,100429.09
2023-02-19T07:18:07.787Z,100428.44
2023-02-19T07:20:34.635Z,100418.47
2023-02-19T07:23:01.443Z,100416.28
2023-02-19T07:25:28.220Z,100415.97
2023-02-19T07:27:55.148Z,100415.63
2023-02-19T07:30:22.025Z,100421.63
2023-02-19T07:32:48.897Z,100432.75
2023-02-19T07:35:16.199Z,100422.47
2023-02-19T07:37:43.214Z,100418.81
2023-02-19T07:40:10.547Z,100431.69
2023-02-19T07:42:37.715Z,100436.97
2023-02-19T07:45:06.178Z,100430.38
2023-02-19T07:47:33.076Z,100418.47
2023-02-19T07:49:59.902Z,100410.28
2023-02-19T07:52:26.811Z,100407.47
2023-02-19T07:54:53.676Z,100410.97
2023-02-19T07:57:20.489Z,100418.16
2023-02-19T07:59:47.585Z,100408.81
2023-02-19T08:02:38.023Z,100410.91
2023-02-19T08:05:06.311Z,100417.28
2023-02-19T08:07:34.724Z,100424.22
2023-02-19T08:10:20.591Z,100414.31
2023-02-19T08:13:17.540Z,100393.41
2023-02-19T08:15:44.792Z,100397.28
2023-02-19T08:18:12.386Z,100391.28
2023-02-19T08:20:39.291Z,100394.41
2023-02-19T08:23:06.577Z,100387.59
2023-02-19T08:25:33.744Z,100383.47
2023-02-19T08:28:00.945Z,100371.19
2023-02-19T08:30:29.477Z,100366.63
2023-02-19T08:32:56.654Z,100359.47
2023-02-19T08:35:23.455Z,100356.75
2023-02-19T08:37:50.252Z,100355.00
2023-02-19T08:40:17.467Z,100334.56
2023-02-19T08:42:44.214Z,100334.03
2023-02-19T08:45:11.143Z,100333.03
2023-02-19T08:47:38.366Z,100336.97
2023-02-19T08:50:06.598Z,100342.38
2023-02-19T08:52:33.937Z,100335.81
2023-02-19T08:55:01.450Z,100337.22
2023-02-19T08:57:29.307Z,100340.19
2023-02-19T08:59:59.787Z,100338.09
2023-02-19T09:02:26.677Z,100332.13
2023-02-19T09:04:53.559Z,100341.13
2023-02-19T09:07:20.452Z,100331.50
2023-02-19T09:09:47.252Z,100318.81
2023-02-19T09:12:14.352Z,100310.88
2023-02-19T09:14:41.472Z,100307.50
2023-02-19T09:17:08.977Z,100303.94
2023-02-19T09:19:37.220Z,100310.09
2023-02-19T09:22:05.026Z,100305.88
2023-02-19T09:24:32.244Z,100323.97
2023-02-19T09:26:59.348Z,100315.53
2023-02-19T09:29:27.719Z,100312.34
2023-02-19T09:31:58.956Z,100323.50
2023-02-19T09:34:27.586Z,100316.38
2023-02-19T09:36:55.059Z,100326.34
2023-02-19T09:39:22.097Z,100318.69
2023-02-19T09:41:55.429Z,100321.88
2023-02-19T09:44:32.307Z,100312.56
2023-02-19T09:47:00.561Z,100317.28
2023-02-19T09:49:39.696Z,100323.53
2023-02-19T09:52:08.624Z,100320.53
2023-02-19T09:54:36.775Z,100327.00
2023-02-19T09:57:04.311Z,100336.38
2023-02-19T09:59:41.127Z,100335.56
2023-02-19T10:02:17.381Z,100351.97
2023-02-19T10:04:45.874Z,100344.09
2023-02-19T10:07:20.196Z,100346.75
2023-02-19T10:10:02.412Z,100342.16
2023-02-19T10:12:31.854Z,100348.03
2023-02-19T10:15:11.368Z,100325.19
2023-02-19T10:17:38.772Z,100315.09
2023-02-19T10:20:05.943Z,100322.88
2023-02-19T10:22:33.614Z,100310.78
2023-02-19T10:25:00.538Z,100307.13
2023-02-19T10:27:33.616Z,100297.59
2023-02-19T10:30:01.143Z,100299.63
2023-02-19T10:32:29.604Z,100295.06
2023-02-19T10:35:10.546Z,100283.91
2023-02-19T10:37:41.925Z,100284.91
2023-02-19T10:40:18.057Z,100274.25
2023-02-19T10:42:49.555Z,100288.41
2023-02-19T10:45:20.169Z,100289.81
2023-02-19T10:47:47.974Z,100277.13
2023-02-19T10:50:28.570Z,100280.94
2023-02-19T10:52:57.291Z,100261.84
2023-02-19T10:55:28.410Z,100256.44
2023-02-19T10:57:56.220Z,100265.59
2023-02-19T11:00:30.345Z,100262.47
2023-02-19T11:03:20.795Z,100254.00
2023-02-19T11:06:04.350Z,100248.78
2023-02-19T11:08:38.443Z,100247.31
2023-02-19T11:11:05.495Z,100255.16
2023-02-19T11:13:38.039Z,100251.75
2023-02-19T11:16:05.319Z,100237.81
2023-02-19T11:18:32.868Z,100241.09
2023-02-19T11:21:02.108Z,100228.75
2023-02-19T11:23:37.784Z,100234.38
2023-02-19T11:26:17.032Z,100237.69
2023-02-19T11:28:44.412Z,100244.31
2023-02-19T11:31:20.161Z,100230.84
2023-02-19T11:33:59.248Z,100224.13
2023-02-19T11:36:37.342Z,100209.41
2023-02-19T11:39:29.022Z,100207.25
2023-02-19T11:41:55.887Z,100194.56
2023-02-19T11:44:39.855Z,100190.47
2023-02-19T11:47:44.947Z,100183.94
2023-02-19T11:50:29.728Z,100168.56
2023-02-19T11:52:59.570Z,100152.53
2023-02-19T11:55:55.614Z,100151.94
2023-02-19T11:58:28.532Z,100132.00
2023-02-19T12:01:17.407Z,100126.47
2023-02-19T12:03:47.326Z,100121.53
2023-02-19T12:06:17.182Z,100098.53
2023-02-19T12:09:05.936Z,100109.59
2023-02-19T12:11:38.513Z,100098.69
2023-02-19T12:14:43.998Z,100092.75
2023-02-19T12:17:48.327Z,100086.16
2023-02-19T12:20:26.444Z,100086.34
2023-02-19T12:23:19.301Z,100070.72
2023-02-19T12:25:51.868Z,100070.09
2023-02-19T12:28:44.720Z,100066.16
2023-02-19T12:31:20.618Z,100057.94
2023-02-19T12:34:02.728Z,100052.97
2023-02-19T12:36:41.696Z,100026.41
2023-02-19T12:39:23.254Z,100027.66
2023-02-19T12:41:50.045Z,100019.38
2023-02-19T12:44:28.159Z,100020.41
2023-02-19T12:46:59.637Z,100014.63
2023-02-19T12:49:33.349Z,100003.53
2023-02-19T12:52:06.636Z,100017.50
2023-02-19T12:54:42.508Z,99996.94
2023-02-19T12:57:32.241Z,99986.69
2023-02-19T13:00:04.913Z,99978.03
2023-02-19T13:02:59.829Z,99967.72
2023-02-19T13:05:47.286Z,99957.63
2023-02-19T13:08:28.401Z,99953.72
2023-02-19T13:10:56.753Z,99941.38
2023-02-19T13:13:28.309Z,99934.34
2023-02-19T13:16:23.492Z,99925.09
2023-02-19T13:19:02.768Z,99921.78
2023-02-19T13:21:50.812Z,99921.56
2023-02-19T13:24:24.187Z,99915.81
2023-02-19T13:27:29.098Z,99906.66
2023-02-19T13:30:05.612Z,99890.63
2023-02-19T13:32:59.931Z,99894.13
2023-02-19T13:35:54.534Z,99880.84
2023-02-19T13:38:21.651Z,99868.81
2023-02-19T13:40:56.451Z,99850.91
2023-02-19T13:43:29.899Z,99840.38
2023-02-19T13:45:59.901Z,99844.22
2023-02-19T13:48:31.193Z,99833.75
2023-02-19T13:51:13.666Z,99827.72
2023-02-19T13:53:44.859Z,99825.28
2023-02-19T13:56:29.918Z,99812.06
2023-02-19T13:59:12.714Z,99809.97
2023-02-19T14:01:51.916Z,99799.78
2023-02-19T14:04:24.678Z,99794.59
2023-02-19T14:07:03.945Z,99788.94
2023-02-19T14:09:37.088Z,99788.88
2023-02-19T14:12:06.278Z,99771.22
2023-02-19T14:14:55.287Z,99765.09
2023-02-19T14:17:37.440Z,99757.56
2023-02-19T14:20:27.036Z,99736.50
2023-02-19T14:23:01.923Z,99730.31
2023-02-19T14:25:31.999Z,99733.69
2023-02-19T14:28:15.352Z,99732.56
2023-02-19T14:31:16.301Z,99721.03
2023-02-19T14:33:47.206Z,99717.19
2023-02-19T14:36:40.015Z,99704.13
2023-02-19T14:39:25.800Z,99693.66
2023-02-19T14:42:16.467Z,99683.88
2023-02-19T14:44:59.035Z,99661.97
2023-02-19T14:47:27.758Z,99673.88
2023-02-19T14:50:04.185Z,99662.09
2023-02-19T14:52:57.865Z,99660.34
2023-02-19T14:55:35.304Z,99685.06
2023-02-19T14:58:06.841Z,99674.09
2023-02-19T15:00:37.392Z,99678.66
2023-02-19T15:03:05.202Z,99665.34
2023-02-19T15:05:34.189Z,99653.56
2023-02-19T15:08:16.599Z,99648.22
2023-02-19T15:10:43.960Z,99626.75
2023-02-19T15:13:16.752Z,99600.84
2023-02-19T15:15:45.299Z,99591.06
2023-02-19T15:18:21.311Z,99578.22
2023-02-19T15:20:48.886Z,99569.22
2023-02-19T15:23:23.880Z,99576.09
2023-02-19T15:25:51.698Z,99578.22
2023-02-19T15:28:24.176Z,99589.63
2023-02-19T15:30:52.941Z,99569.84
2023-02-19T15:33:20.570Z,99568.53
2023-02-19T15:35:53.066Z,99558.84
2023-02-19T15:38:20.023Z,99538.09
2023-02-19T15:40:47.764Z,99530.03
2023-02-19T15:43:29.161Z,99545.69
2023-02-19T15:45:59.894Z,99534.47
2023-02-19T15:48:31.856Z,99548.69
2023-02-19T15:51:08.316Z,99535.66
2023-02-19T15:53:38.926Z,99515.69
2023-02-19T15:56:12.760Z,99539.59
2023-02-19T15:58:46.827Z,99527.56
2023-02-19T16:01:20.008Z,99529.44
2023-02-19T16:03:47.673Z,99515.63
2023-02-19T16:06:16.219Z,99524.38
2023-02-19T16:09:03.896Z,99531.03
2023-02-19T16:11:38.115Z,99539.75
2023-02-19T16:14:25.144Z,99515.50
2023-02-19T16:16:55.497Z,99518.03
2023-02-19T16:19:29.103Z,99520.94
2023-02-19T16:21:56.302Z,99509.84
2023-02-19T16:24:29.200Z,99527.00
2023-02-19T16:26:56.699Z,99463.25
2023-02-19T16:29:29.849Z,99471.47
2023-02-19T16:31:59.719Z,99468.53
2023-02-19T16:34:31.111Z,99448.44
2023-02-19T16:36:57.971Z,99448.44
2023-02-19T16:39:24.891Z,99457.31
2023-02-19T16:41:51.739Z,99450.63
2023-02-19T16:44:21.629Z,99451.31
2023-02-19T16:46:53.512Z,99460.41
2023-02-19T16:49:21.398Z,99445.88
2023-02-19T16:51:48.332Z,99438.72
2023-02-19T16:54:15.197Z,99437.16
2023-02-19T16:56:42.009Z,99446.75
2023-02-19T16:59:08.924Z,99416.94
2023-02-19T17:01:36.761Z,99440.81
2023-02-19T17:04:06.936Z,99416.63
2023-02-19T17:06:34.902Z,99425.25
2023-02-19T17:09:01.727Z,99427.13
2023-02-19T17:11:28.513Z,99441.31
2023-02-19T17:13:55.436Z,99439.75
2023-02-19T17:16:26.380Z,99437.06
2023-02-19T17:18:54.305Z,99427.69
2023-02-19T17:21:28.222Z,99424.19
2023-02-19T17:23:56.585Z,99409.69
2023-02-19T17:26:26.186Z,99418.41
2023-02-19T17:28:53.112Z,99414.81
2023-02-19T17:31:20.159Z,99408.13
2023-02-19T17:33:47.278Z,99378.91
2023-02-19T17:36:22.224Z,99387.94
2023-02-19T17:38:49.208Z,99387.13
2023-02-19T17:41:16.044Z,99397.88
2023-02-19T17:43:43.110Z,99386.06
2023-02-19T17:46:23.755Z,99382.88
2023-02-19T17:48:50.962Z,99370.03
2023-02-19T17:51:17.804Z,99364.16
2023-02-19T17:53:46.686Z,99361.97
2023-02-19T17:56:21.822Z,99357.72
2023-02-19T17:58:49.125Z,99336.66
2023-02-19T18:01:16.234Z,99336.69
2023-02-19T18:03:43.764Z,99345.03
2023-02-19T18:06:11.352Z,99338.28
2023-02-19T18:08:38.223Z,99334.22
2023-02-19T18:11:06.835Z,99344.22
2023-02-19T18:13:33.659Z,99355.22
2023-02-19T18:16:00.492Z,99357.41
2023-02-19T18:18:27.301Z,99351.75
2023-02-19T18:20:54.126Z,99354.44
2023-02-19T18:23:21.038Z,99349.31
2023-02-19T18:25:47.948Z,99355.81
2023-02-19T18:28:15.398Z,99369.22
2023-02-19T18:30:42.550Z,99357.84
2023-02-19T18:33:11.024Z,99347.03
2023-02-19T18:35:38.662Z,99357.31
2023-02-19T18:38:05.713Z,99359.69
2023-02-19T18:40:32.608Z,99373.38
2023-02-19T18:42:59.759Z,99376.03
2023-02-19T18:45:27.600Z,99365.75
2023-02-19T18:47:54.555Z,99363.50
2023-02-19T18:50:21.504Z,99358.38
2023-02-19T18:52:48.528Z,99398.72
2023-02-19T18:55:15.424Z,99452.88
2023-02-19T18:57:42.329Z,99434.88
2023-02-19T19:00:10.441Z,99440.00
2023-02-19T19:02:48.817Z,99425.25
2023-02-19T19:05:18.651Z,99397.91
2023-02-19T19:07:45.506Z,99407.03
2023-02-19T19:10:12.369Z,99399.78
2023-02-19T19:12:39.189Z,99403.22
2023-02-19T19:15:06.283Z,99399.47
2023-02-19T19:17:33.097Z,99382.72
2023-02-19T19:19:59.914Z,99365.22
2023-02-19T19:22:26.851Z,99372.69
2023-02-19T19:24:53.834Z,99370.25
2023-02-19T19:27:21.127Z,99372.88
2023-02-19T19:29:49.692Z,99389.78
2023-02-19T19:32:16.809Z,99361.63
2023-02-19T19:34:43.939Z,99366.94
2023-02-19T19:37:10.804Z,99366.94
2023-02-19T19:39:37.738Z,99351.63
2023-02-19T19:42:04.736Z,99374.00
2023-02-19T19:44:31.670Z,99405.41
2023-02-19T19:46:58.633Z,99374.81
2023-02-19T19:49:25.605Z,99384.19
2023-02-19T19:51:52.883Z,99387.66
2023-02-19T19:54:20.062Z,99375.81
2023-02-19T19:56:47.645Z,99351.53
2023-02-19T19:59:16.535Z,99344.25
2023-02-19T20:01:54.677Z,99375.88
2023-02-19T20:04:22.689Z,99381.81
2023-02-19T20:06:50.082Z,99401.34
2023-02-19T20:09:18.165Z,99375.06
2023-02-19T20:11:50.018Z,99383.38
2023-02-19T20:14:18.843Z,99366.59
2023-02-19T20:16:47.543Z,99398.00
2023-02-19T20:19:15.033Z,99381.03
2023-02-19T20:21:46.598Z,99361.31
2023-02-19T20:24:15.354Z,99352.69
2023-02-19T20:26:42.291Z,99346.69
2023-02-19T20:29:10.543Z,99346.84
2023-02-19T20:31:38.628Z,99362.78
2023-02-19T20:34:05.914Z,99349.53
2023-02-19T20:36:32.901Z,99331.66
2023-02-19T20:38:59.949Z,99344.72
2023-02-19T20:41:26.823Z,99335.19
2023-02-19T20:43:54.345Z,99332.78
2023-02-19T20:46:21.964Z,99307.97
2023-02-19T20:48:51.760Z,99326.97
2023-02-19T20:51:18.753Z,99314.31
2023-02-19T20:53:46.005Z,99322.09
2023-02-19T20:56:13.152Z,99321.03
2023-02-19T20:58:43.456Z,99319.16
2023-02-19T21:01:11.782Z,99311.84
2023-02-19T21:03:38.677Z,99311.53
2023-02-19T21:06:05.751Z,99290.16
2023-02-19T21:08:32.534Z,99298.19
2023-02-19T21:10:59.645Z,99281.78
2023-02-19T21:13:27.604Z,99271.75
2023-02-19T21:15:55.893Z,99255.59
2023-02-19T21:18:22.928Z,99223.75
2023-02-19T21:20:49.724Z,99229.19
2023-02-19T21:23:16.492Z,99230.91
2023-02-19T21:25:43.372Z,99231.72
2023-02-19T21:28:10.974Z,99225.34
2023-02-19T21:30:37.905Z,99227.63
2023-02-19T21:33:05.629Z,99192.31
2023-02-19T21:35:32.680Z,99203.09
2023-02-19T21:38:00.053Z,99188.13
2023-02-19T21:40:30.190Z,99189.50
2023-02-19T21:42:57.837Z,99165.72
2023-02-19T21:45:24.692Z,99181.88
2023-02-19T21:47:52.292Z,99172.53
2023-02-19T21:50:20.195Z,99198.28
2023-02-19T21:52:47.627Z,99193.22
2023-02-19T21:55:15.428Z,99184.97
2023-02-19T21:57:42.690Z,99172.38
2023-02-19T22:00:10.035Z,99164.81
2023-02-19T22:02:37.814Z,99186.84
2023-02-19T22:05:04.711Z,99197.72
2023-02-19T22:07:31.581Z,99204.47
2023-02-19T22:09:59.385Z,99202.44
2023-02-19T22:12:26.758Z,99214.03
2023-02-19T22:14:53.644Z,99217.03
2023-02-19T22:17:20.945Z,99238.84
2023-02-19T22:19:47.861Z,99230.13
2023-02-19T22:22:14.816Z,99230.88
2023-02-19T22:24:41.731Z,99224.94
2023-02-19T22:27:08.684Z,99214.69
2023-02-19T22:29:35.514Z,99210.38
2023-02-19T22:32:02.932Z,99196.97
2023-02-19T22:34:30.022Z,99208.94
2023-02-19T22:36:57.207Z,99209.19
2023-02-19T22:39:27.434Z,99206.81
2023-02-19T22:41:56.160Z,99204.94
2023-02-19T22:44:23.824Z,99188.31
2023-02-19T22:46:56.251Z,99185.88
2023-02-19T22:49:23.760Z,99161.19
2023-02-19T22:52:06.155Z,99163.84
2023-02-19T22:54:33.829Z,99160.28
2023-02-19T22:57:00.676Z,99149.78
2023-02-19T22:59:27.635Z,99152.22
2023-02-19T23:01:54.733Z,99144.28
2023-02-19T23:04:24.389Z,99152.31
2023-02-19T23:06:52.398Z,99163.19
2023-02-19T23:09:27.474Z,99175.22
2023-02-19T23:12:06.657Z,99146.00
2023-02-19T23:14:34.689Z,99124.53
2023-02-19T23:17:03.007Z,99128.13
2023-02-19T23:19:30.748Z,99136.66
2023-02-19T23:21:58.596Z,99145.75
2023-02-19T23:24:25.969Z,99143.06
2023-02-19T23:26:54.159Z,99124.56
2023-02-19T23:29:25.276Z,99137.22
2023-02-19T23:31:52.913Z,99142.69
2023-02-19T23:34:20.914Z,99126.34
2023-02-19T23:36:50.449Z,99149.97
2023-02-19T23:39:19.923Z,99168.75
2023-02-19T23:41:49.484Z,99143.50
2023-02-19T23:44:18.043Z,99146.06
2023-02-19T23:46:46.053Z,99139.09
2023-02-19T23:49:13.277Z,99137.78
2023-02-19T23:51:40.297Z,99137.16
2023-02-19T23:54:07.419Z,99142.56
2023-02-19T23:56:35.331Z,99142.00
2023-02-19T23:59:04.160Z,99129.81
